METAR Data
IDs: Format: Raw Decoded Include TAF

Data at: 2351 UTC 24 Apr 2019

METAR for:KPEA (Pella Muni, IA, US)
Text:KPEA 242335Z AUTO 16005KT 10SM CLR 19/10 A2982 RMK AO2 T01920099
Temperature: 19.2°C ( 67°F)
Dewpoint: 9.9°C ( 50°F) [RH = 55%]
Pressure (altimeter):29.82 inches Hg (1009.9 mb)
Winds:from the SSE (160 degrees) at 6 MPH (5 knots; 2.6 m/s)
Visibility:10 or more sm (16+ km)
Ceiling:at least 12,000 feet AGL
Clouds:sky clear below 12,000 feet AGL
QC Flag:automated observation with no human augmentation